Jork Reliance — V2CL2 — position and weather

sailwx.info

Track history (hours):
 
Tides and Currents Weather Stations Pressure Air Temp Water Temp Dewpoint Dewpoint Depression Visibility Wind Speed Wind Dir Waves Ship Positions

Jork Reliance

Last reported at 2014-Sep-17 05:19 UTC. Time now 2014-Sep-17 11:40 UTC.
Position N 44°54' W 000°32'.

Length 141 m; draft 6.3 m.

Type: Ship (hazmat cat A). MMSI: 305033000.

Date/timePositionNaut miles runAvg speedWind from/ knotsBaromVisibWave heightAir tempDewpointWater temp
2014-Sep-17 05:19N 44°54' W 000°32'0 0.0
2014-Sep-17 03:13N 44°54' W 000°32'0 0.0
2014-Sep-17 02:31N 44°54' W 000°32'0 0.0
2014-Sep-17 01:16N 44°54' W 000°32'0 0.0
2014-Sep-16 09:13N 44°54' W 000°32'0 0.0
2014-Sep-16 07:19N 44°54' W 000°32'0 0.0
2014-Sep-15 20:33N 44°55' W 000°33'1312.3
2014-Sep-15 19:32N 45°06' W 000°41'1616.2
2014-Sep-15 18:33N 45°21' W 000°48'1716.6
2014-Sep-15 17:33N 45°34' W 001°02'1413.8
2014-Sep-15 16:34N 45°36' W 001°22'1211.1
2014-Sep-15 15:27N 45°40' W 001°39'1111.1
2014-Sep-15 14:30N 45°43' W 001°53'1110.9
2014-Sep-15 13:32N 45°47' W 002°07'1010.3
2014-Sep-15 12:33N 45°52' W 002°20'14711.9
2014-Sep-15 00:09N 47°33' W 004°55'211 9.2
2014-Sep-14 01:11N 49°42' W 000°41'35 9.6
2014-Sep-13 21:33N 49°28' E 000°08'0 0.0
2014-Sep-13 20:30N 49°28' E 000°08'0 0.0
2014-Sep-13 19:33N 49°28' E 000°08'0 0.0
2014-Sep-13 18:30N 49°28' E 000°08'0 0.0
2014-Sep-13 17:33N 49°28' E 000°08'0 0.0
2014-Sep-13 16:33N 49°28' E 000°08'0 0.0
2014-Sep-13 15:30N 49°28' E 000°08'0 0.0
2014-Sep-13 14:30N 49°28' E 000°08'0 0.0
2014-Sep-13 13:33N 49°28' E 000°08'0 0.0
2014-Sep-13 12:33N 49°28' E 000°08'0 0.0
2014-Sep-13 11:33N 49°28' E 000°08'9 8.9
2014-Sep-13 10:33N 49°31' W 000°05'1313.2
2014-Sep-13 09:33N 49°43' W 000°11'5114.9
2014-Sep-13 06:07N 50°32' E 000°17'1018.0
2014-Sep-13 05:33N 50°36' E 000°32'1717.3
2014-Sep-13 04:34N 50°45' E 000°54'2015.5
2014-Sep-13 03:18N 50°58' E 001°17'1013.5
2014-Sep-13 02:34N 51°05' E 001°29'1413.8
2014-Sep-13 01:33N 51°14' E 001°46'1515.2
2014-Sep-13 00:33N 51°26' E 002°01'1615.4
2014-Sep-12 23:32N 51°22' E 002°25'1515.5
2014-Sep-12 22:33N 51°22' E 002°50'1717.2
2014-Sep-12 21:33N 51°25' E 003°17'1515.5
2014-Sep-12 20:34N 51°24' E 003°42'1312.8
2014-Sep-12 19:34N 51°24' E 004°02'10 9.8
2014-Sep-12 18:34N 51°21' E 004°17'0 0.0
2014-Sep-12 17:34N 51°21' E 004°17'2 1.8
2014-Sep-12 16:32N 51°19' E 004°19'0 0.0
2014-Sep-12 15:31N 51°19' E 004°19'0 0.0
2014-Sep-12 14:28N 51°19' E 004°19'0 0.0
2014-Sep-12 13:25N 51°19' E 004°19'0 0.0
2014-Sep-12 12:29N 51°19' E 004°19'0 0.0
2014-Sep-12 11:31N 51°19' E 004°19'0 0.0
2014-Sep-12 10:28N 51°19' E 004°19'0 0.0
2014-Sep-12 09:19N 51°19' E 004°19'0 0.0
2014-Sep-12 08:28N 51°19' E 004°19'0 0.0
2014-Sep-12 07:31N 51°19' E 004°19'0 0.0
2014-Sep-12 06:32N 51°19' E 004°19'0 0.0
2014-Sep-12 05:31N 51°19' E 004°19'0 0.0
2014-Sep-12 04:28N 51°19' E 004°19'0 0.1
2014-Sep-12 03:33N 51°19' E 004°19'2 1.8
2014-Sep-12 02:34N 51°21' E 004°17'1 0.5
2014-Sep-12 01:33N 51°21' E 004°16'5 4.9
2014-Sep-12 00:33N 51°22' E 004°09'7 7.5
2014-Sep-11 23:33N 51°24' E 003°57'1110.6
2014-Sep-11 22:34N 51°26' E 003°41'1111.1
2014-Sep-11 21:33N 51°24' E 003°23'1413.5
2014-Sep-11 20:33N 51°24' E 003°01'1616.4
2014-Sep-11 19:33N 51°23' E 002°35'2 0.8
2014-Sep-11 17:32N 51°24' E 002°35'0 0.1
2014-Sep-11 16:33N 51°24' E 002°35'0 0.0
2014-Sep-11 15:26N 51°24' E 002°35'0 0.0
2014-Sep-11 14:31N 51°24' E 002°35'0 0.0
2014-Sep-11 13:31N 51°24' E 002°35'0 0.3
2014-Sep-11 12:31N 51°24' E 002°35'0 0.1
2014-Sep-11 11:31N 51°24' E 002°34'0 0.0
2014-Sep-11 10:32N 51°24' E 002°34'0 0.0
2014-Sep-11 09:31N 51°24' E 002°34'0 0.0
2014-Sep-11 08:28N 51°24' E 002°34'0 0.0
2014-Sep-11 07:13N 51°24' E 002°34'0 0.0
2014-Sep-11 06:25N 51°24' E 002°35'0 0.1
2014-Sep-11 05:25N 51°24' E 002°35'0 0.1
2014-Sep-11 03:16N 51°24' E 002°35'0 0.1
2014-Sep-11 02:22N 51°24' E 002°35'0 0.0
2014-Sep-11 01:31N 51°24' E 002°35'0 0.2
2014-Sep-11 00:30N 51°24' E 002°35'1211.2
2014-Sep-10 23:27N 51°18' E 002°18'1112.9
2014-Sep-10 22:33N 51°12' E 002°03'1211.9
2014-Sep-10 21:33N 51°05' E 001°47'1512.8
2014-Sep-10 20:24N 51°02' E 002°10'2 0.6
2014-Sep-10 17:30N 51°01' E 002°11'0 0.0
2014-Sep-10 16:27N 51°01' E 002°11'0 0.0
2014-Sep-10 15:18N 51°01' E 002°11'0 0.0
2014-Sep-10 14:09N 51°01' E 002°11'0 0.0
2014-Sep-10 12:27N 51°01' E 002°11'0 0.0
2014-Sep-10 11:33N 51°01' E 002°11'2 1.4
2014-Sep-10 10:22N 51°02' E 002°10'1214.3
2014-Sep-10 09:33N 51°02' E 001°52'1312.6
2014-Sep-10 08:33N 50°56' E 001°34'3213.0
2014-Sep-10 06:06N 50°32' E 000°60'1114.1
2014-Sep-10 05:20N 50°27' E 000°45'1114.1
2014-Sep-10 04:34N 50°24' E 000°29'10714.8
2014-Sep-09 21:21N 49°55' W 002°12'5417.8
2014-Sep-09 18:18N 49°35' W 003°30'11715.1
2014-Sep-09 10:34N 48°15' W 005°41'1515.4
2014-Sep-09 09:33N 48°01' W 005°31'1515.0
2014-Sep-09 08:33N 47°49' W 005°18'1515.5
2014-Sep-09 07:34N 47°38' W 005°02'16315.7
2014-Sep-08 21:14N 45°48' W 002°07'1116.3
2014-Sep-08 20:33N 45°43' W 001°53'6213.8
2014-Sep-08 16:04N 45°07' W 000°42'14 0.5
2014-Sep-07 11:20N 44°54' W 000°32'0 0.0
2014-Sep-07 10:20N 44°54' W 000°32'0 0.0
2014-Sep-07 08:32N 44°54' W 000°32'0 0.0
2014-Sep-07 07:29N 44°54' W 000°32'0 0.0
2014-Sep-07 06:26N 44°54' W 000°32'0 0.0
2014-Sep-07 05:32N 44°54' W 000°32'  
Track history (hours):
 
Tides and Currents Weather Stations Pressure Air Temp Water Temp Dewpoint Dewpoint Depression Visibility Wind Speed Wind Dir Waves Ship Positions

Jork Reliance

Last reported at 2014-Sep-17 05:19 UTC. Time now 2014-Sep-17 11:40 UTC.
Position N 44°54' W 000°32'.

Length 141 m; draft 6.3 m.

Type: Ship (hazmat cat A). MMSI: 305033000.

Date/timePositionNaut miles runAvg speedWind from/ knotsBaromVisibWave heightAir tempDewpointWater temp
2014-Sep-17 05:19N 44°54' W 000°32'0 0.0
2014-Sep-17 03:13N 44°54' W 000°32'0 0.0
2014-Sep-17 02:31N 44°54' W 000°32'0 0.0
2014-Sep-17 01:16N 44°54' W 000°32'0 0.0
2014-Sep-16 09:13N 44°54' W 000°32'0 0.0
2014-Sep-16 07:19N 44°54' W 000°32'0 0.0
2014-Sep-15 20:33N 44°55' W 000°33'1312.3
2014-Sep-15 19:32N 45°06' W 000°41'1616.2
2014-Sep-15 18:33N 45°21' W 000°48'1716.6
2014-Sep-15 17:33N 45°34' W 001°02'1413.8
2014-Sep-15 16:34N 45°36' W 001°22'1211.1
2014-Sep-15 15:27N 45°40' W 001°39'1111.1
2014-Sep-15 14:30N 45°43' W 001°53'1110.9
2014-Sep-15 13:32N 45°47' W 002°07'1010.3
2014-Sep-15 12:33N 45°52' W 002°20'14711.9
2014-Sep-15 00:09N 47°33' W 004°55'211 9.2
2014-Sep-14 01:11N 49°42' W 000°41'35 9.6
2014-Sep-13 21:33N 49°28' E 000°08'0 0.0
2014-Sep-13 20:30N 49°28' E 000°08'0 0.0
2014-Sep-13 19:33N 49°28' E 000°08'0 0.0
2014-Sep-13 18:30N 49°28' E 000°08'0 0.0
2014-Sep-13 17:33N 49°28' E 000°08'0 0.0
2014-Sep-13 16:33N 49°28' E 000°08'0 0.0
2014-Sep-13 15:30N 49°28' E 000°08'0 0.0
2014-Sep-13 14:30N 49°28' E 000°08'0 0.0
2014-Sep-13 13:33N 49°28' E 000°08'0 0.0
2014-Sep-13 12:33N 49°28' E 000°08'0 0.0
2014-Sep-13 11:33N 49°28' E 000°08'9 8.9
2014-Sep-13 10:33N 49°31' W 000°05'1313.2
2014-Sep-13 09:33N 49°43' W 000°11'5114.9
2014-Sep-13 06:07N 50°32' E 000°17'1018.0
2014-Sep-13 05:33N 50°36' E 000°32'1717.3
2014-Sep-13 04:34N 50°45' E 000°54'2015.5
2014-Sep-13 03:18N 50°58' E 001°17'1013.5
2014-Sep-13 02:34N 51°05' E 001°29'1413.8
2014-Sep-13 01:33N 51°14' E 001°46'1515.2
2014-Sep-13 00:33N 51°26' E 002°01'1615.4
2014-Sep-12 23:32N 51°22' E 002°25'1515.5
2014-Sep-12 22:33N 51°22' E 002°50'1717.2
2014-Sep-12 21:33N 51°25' E 003°17'1515.5
2014-Sep-12 20:34N 51°24' E 003°42'1312.8
2014-Sep-12 19:34N 51°24' E 004°02'10 9.8
2014-Sep-12 18:34N 51°21' E 004°17'0 0.0
2014-Sep-12 17:34N 51°21' E 004°17'2 1.8
2014-Sep-12 16:32N 51°19' E 004°19'0 0.0
2014-Sep-12 15:31N 51°19' E 004°19'0 0.0
2014-Sep-12 14:28N 51°19' E 004°19'0 0.0
2014-Sep-12 13:25N 51°19' E 004°19'0 0.0
2014-Sep-12 12:29N 51°19' E 004°19'0 0.0
2014-Sep-12 11:31N 51°19' E 004°19'0 0.0
2014-Sep-12 10:28N 51°19' E 004°19'0 0.0
2014-Sep-12 09:19N 51°19' E 004°19'0 0.0
2014-Sep-12 08:28N 51°19' E 004°19'0 0.0
2014-Sep-12 07:31N 51°19' E 004°19'0 0.0
2014-Sep-12 06:32N 51°19' E 004°19'0 0.0
2014-Sep-12 05:31N 51°19' E 004°19'0 0.0
2014-Sep-12 04:28N 51°19' E 004°19'0 0.1
2014-Sep-12 03:33N 51°19' E 004°19'2 1.8
2014-Sep-12 02:34N 51°21' E 004°17'1 0.5
2014-Sep-12 01:33N 51°21' E 004°16'5 4.9
2014-Sep-12 00:33N 51°22' E 004°09'7 7.5
2014-Sep-11 23:33N 51°24' E 003°57'1110.6
2014-Sep-11 22:34N 51°26' E 003°41'1111.1
2014-Sep-11 21:33N 51°24' E 003°23'1413.5
2014-Sep-11 20:33N 51°24' E 003°01'1616.4
2014-Sep-11 19:33N 51°23' E 002°35'2 0.8
2014-Sep-11 17:32N 51°24' E 002°35'0 0.1
2014-Sep-11 16:33N 51°24' E 002°35'0 0.0
2014-Sep-11 15:26N 51°24' E 002°35'0 0.0
2014-Sep-11 14:31N 51°24' E 002°35'0 0.0
2014-Sep-11 13:31N 51°24' E 002°35'0 0.3
2014-Sep-11 12:31N 51°24' E 002°35'0 0.1
2014-Sep-11 11:31N 51°24' E 002°34'0 0.0
2014-Sep-11 10:32N 51°24' E 002°34'0 0.0
2014-Sep-11 09:31N 51°24' E 002°34'0 0.0
2014-Sep-11 08:28N 51°24' E 002°34'0 0.0
2014-Sep-11 07:13N 51°24' E 002°34'0 0.0
2014-Sep-11 06:25N 51°24' E 002°35'0 0.1
2014-Sep-11 05:25N 51°24' E 002°35'0 0.1
2014-Sep-11 03:16N 51°24' E 002°35'0 0.1
2014-Sep-11 02:22N 51°24' E 002°35'0 0.0
2014-Sep-11 01:31N 51°24' E 002°35'0 0.2
2014-Sep-11 00:30N 51°24' E 002°35'1211.2
2014-Sep-10 23:27N 51°18' E 002°18'1112.9
2014-Sep-10 22:33N 51°12' E 002°03'1211.9
2014-Sep-10 21:33N 51°05' E 001°47'1512.8
2014-Sep-10 20:24N 51°02' E 002°10'2 0.6
2014-Sep-10 17:30N 51°01' E 002°11'0 0.0
2014-Sep-10 16:27N 51°01' E 002°11'0 0.0
2014-Sep-10 15:18N 51°01' E 002°11'0 0.0
2014-Sep-10 14:09N 51°01' E 002°11'0 0.0
2014-Sep-10 12:27N 51°01' E 002°11'0 0.0
2014-Sep-10 11:33N 51°01' E 002°11'2 1.4
2014-Sep-10 10:22N 51°02' E 002°10'1214.3
2014-Sep-10 09:33N 51°02' E 001°52'1312.6
2014-Sep-10 08:33N 50°56' E 001°34'3213.0
2014-Sep-10 06:06N 50°32' E 000°60'1114.1
2014-Sep-10 05:20N 50°27' E 000°45'1114.1
2014-Sep-10 04:34N 50°24' E 000°29'10714.8
2014-Sep-09 21:21N 49°55' W 002°12'5417.8
2014-Sep-09 18:18N 49°35' W 003°30'11715.1
2014-Sep-09 10:34N 48°15' W 005°41'1515.4
2014-Sep-09 09:33N 48°01' W 005°31'1515.0
2014-Sep-09 08:33N 47°49' W 005°18'1515.5
2014-Sep-09 07:34N 47°38' W 005°02'16315.7
2014-Sep-08 21:14N 45°48' W 002°07'1116.3
2014-Sep-08 20:33N 45°43' W 001°53'6213.8
2014-Sep-08 16:04N 45°07' W 000°42'14 0.5
2014-Sep-07 11:20N 44°54' W 000°32'0 0.0
2014-Sep-07 10:20N 44°54' W 000°32'0 0.0
2014-Sep-07 08:32N 44°54' W 000°32'0 0.0
2014-Sep-07 07:29N 44°54' W 000°32'0 0.0
2014-Sep-07 06:26N 44°54' W 000°32'0 0.0
2014-Sep-07 05:32N 44°54' W 000°32'  

Dump ship's entire track history